createdAt,value
2023-04-19T05:44:14.325Z,13.74
2023-04-19T05:47:00.134Z,13.74
2023-04-19T05:49:45.753Z,13.36
2023-04-19T05:52:31.396Z,13.47
2023-04-19T05:55:18.358Z,13.61
2023-04-19T05:58:03.984Z,13.47
2023-04-19T06:00:49.700Z,13.64
2023-04-19T06:03:35.421Z,13.74
2023-04-19T06:06:22.548Z,13.81
2023-04-19T06:09:08.093Z,13.94
2023-04-19T06:11:54.892Z,13.98
2023-04-19T06:14:40.274Z,14.08
2023-04-19T06:17:26.905Z,14.35
2023-04-19T06:20:12.707Z,14.47
2023-04-19T06:22:59.339Z,14.46
2023-04-19T06:25:46.054Z,14.36
2023-04-19T06:28:34.705Z,14.55
2023-04-19T06:31:20.080Z,14.67
2023-04-19T06:34:08.096Z,14.81
2023-04-19T06:36:54.183Z,14.88
2023-04-19T06:39:39.399Z,15.02
2023-04-19T06:42:26.088Z,15.06
2023-04-19T06:45:12.051Z,14.82
2023-04-19T06:47:57.392Z,14.87
2023-04-19T06:50:42.966Z,14.99
2023-04-19T06:53:28.755Z,15.20
2023-04-19T06:56:14.720Z,15.30
2023-04-19T06:59:00.014Z,15.82
2023-04-19T07:01:46.550Z,16.00
2023-04-19T07:04:33.301Z,16.16
2023-04-19T07:07:23.292Z,15.98
2023-04-19T07:10:09.369Z,16.27
2023-04-19T07:12:55.210Z,16.26
2023-04-19T07:15:40.758Z,16.41
2023-04-19T07:18:26.247Z,16.52
2023-04-19T07:21:12.041Z,17.00
2023-04-19T07:23:57.523Z,17.56
2023-04-19T07:26:43.067Z,17.95
2023-04-19T07:29:28.321Z,18.52
2023-04-19T07:32:16.798Z,18.67
2023-04-19T07:35:02.202Z,18.49
2023-04-19T07:37:47.787Z,18.71
2023-04-19T07:40:36.333Z,18.92
2023-04-19T07:43:21.667Z,19.26
2023-04-19T07:46:16.549Z,19.54
2023-04-19T07:49:02.124Z,19.84
2023-04-19T07:51:47.479Z,19.65
2023-04-19T07:54:33.484Z,19.52
2023-04-19T07:57:20.537Z,19.59
2023-04-19T08:00:13.273Z,20.16
2023-04-19T08:02:58.869Z,19.87
2023-04-19T08:05:44.712Z,20.13
2023-04-19T08:08:31.710Z,20.01
2023-04-19T08:11:18.050Z,20.12
2023-04-19T08:14:26.132Z,19.86
2023-04-19T08:17:22.457Z,19.72
2023-04-19T08:20:12.654Z,20.18
2023-04-19T08:23:00.527Z,20.90
2023-04-19T08:25:48.958Z,21.22
2023-04-19T08:28:34.121Z,21.86
2023-04-19T08:31:24.196Z,22.05
2023-04-19T08:34:13.398Z,21.97
2023-04-19T08:37:03.809Z,21.72
2023-04-19T08:39:50.764Z,22.12
2023-04-19T08:42:37.222Z,24.25
2023-04-19T08:45:28.373Z,25.43
2023-04-19T08:48:15.998Z,26.34
2023-04-19T08:51:05.372Z,27.36
2023-04-19T08:53:51.979Z,25.14
2023-04-19T08:56:37.628Z,24.58
2023-04-19T08:59:23.625Z,23.70
2023-04-19T09:02:09.023Z,23.92
2023-04-19T09:04:54.971Z,24.35
2023-04-19T09:07:40.714Z,27.99
2023-04-19T09:10:27.224Z,31.05
2023-04-19T09:13:13.815Z,33.40
2023-04-19T09:16:02.468Z,35.30
2023-04-19T09:19:08.146Z,35.33
2023-04-19T09:21:57.305Z,35.43
2023-04-19T09:27:34.774Z,36.71
2023-04-19T09:30:31.445Z,36.21
2023-04-19T09:33:35.359Z,35.05
2023-04-19T09:36:31.684Z,29.88
2023-04-19T09:39:33.153Z,32.37
2023-04-19T09:42:36.004Z,36.45
2023-04-19T09:45:30.905Z,35.53
2023-04-19T09:48:17.792Z,37.68
2023-04-19T09:51:06.145Z,30.20
2023-04-19T09:53:54.430Z,32.54
2023-04-19T09:56:40.446Z,26.96
2023-04-19T09:59:26.327Z,27.17
2023-04-19T10:02:12.719Z,24.97
2023-04-19T10:05:16.179Z,23.11
2023-04-19T10:08:08.209Z,22.05
2023-04-19T10:10:55.194Z,21.17
2023-04-19T10:13:40.933Z,21.46
2023-04-19T10:16:34.713Z,21.02
2023-04-19T10:19:22.259Z,21.61
2023-04-19T10:22:08.516Z,21.29
2023-04-19T10:25:10.504Z,21.00
2023-04-19T10:27:57.687Z,21.52
2023-04-19T10:31:13.898Z,21.96
2023-04-19T10:33:59.732Z,23.46
2023-04-19T10:36:46.036Z,24.21
2023-04-19T10:39:45.132Z,25.07
2023-04-19T10:43:08.568Z,24.49
2023-04-19T10:45:54.619Z,22.46
2023-04-19T10:48:54.015Z,22.38
2023-04-19T10:51:43.428Z,20.16
2023-04-19T10:54:32.777Z,20.98
2023-04-19T10:57:19.033Z,21.00
2023-04-19T11:00:21.664Z,21.12
2023-04-19T11:03:56.012Z,20.80
2023-04-19T11:06:53.805Z,21.82
2023-04-19T11:09:42.456Z,23.53
2023-04-19T11:12:27.983Z,23.24
2023-04-19T11:15:13.560Z,23.56
2023-04-19T11:18:11.953Z,23.92
2023-04-19T11:20:58.355Z,23.07
2023-04-19T11:23:43.779Z,22.31
2023-04-19T11:26:29.274Z,22.21
2023-04-19T11:29:15.766Z,24.44
2023-04-19T11:32:01.280Z,24.04
2023-04-19T11:34:46.768Z,23.21
2023-04-19T11:37:35.792Z,23.01
2023-04-19T11:40:23.267Z,27.10
2023-04-19T11:43:08.696Z,25.60
2023-04-19T11:45:54.279Z,24.67
2023-04-19T11:48:40.530Z,22.72
2023-04-19T11:51:26.963Z,21.40
2023-04-19T11:54:19.417Z,21.18
2023-04-19T11:57:06.708Z,21.63
2023-04-19T12:00:09.669Z,22.81
2023-04-19T12:02:56.043Z,26.02
2023-04-19T12:06:04.010Z,25.22
2023-04-19T12:08:51.706Z,26.06
2023-04-19T12:11:50.249Z,27.21
2023-04-19T12:14:37.887Z,25.84
2023-04-19T12:17:23.288Z,25.43
2023-04-19T12:20:11.799Z,25.50
2023-04-19T12:22:56.820Z,24.95
2023-04-19T12:25:46.622Z,23.94
2023-04-19T12:28:32.375Z,23.90
2023-04-19T12:31:18.476Z,23.56
